createdAt,value
2018-11-04T00:01:30.326Z,17.10
2018-11-04T00:03:59.248Z,17.47
2018-11-04T00:06:28.163Z,18.97
2018-11-04T00:08:57.490Z,19.73
2018-11-04T00:11:26.439Z,17.83
2018-11-04T00:13:56.558Z,18.83
2018-11-04T00:16:25.488Z,17.53
2018-11-04T00:18:54.654Z,18.50
2018-11-04T00:21:23.508Z,18.07
2018-11-04T00:26:32.288Z,17.60
2018-11-04T00:29:00.893Z,17.87
2018-11-04T00:34:08.270Z,18.30
2018-11-04T00:36:37.059Z,18.50
2018-11-04T00:39:07.575Z,17.87
2018-11-04T00:41:36.255Z,18.47
2018-11-04T00:44:06.125Z,18.30
2018-11-04T00:46:35.091Z,17.17
2018-11-04T00:49:04.484Z,18.77
2018-11-04T00:51:33.395Z,18.83
2018-11-04T00:54:02.142Z,17.77
2018-11-04T00:56:30.559Z,18.47
2018-11-04T00:59:00.004Z,18.33
2018-11-04T01:01:29.091Z,17.93
2018-11-04T01:03:58.042Z,18.00
2018-11-04T01:06:27.285Z,18.37
2018-11-04T01:08:55.940Z,18.23
2018-11-04T01:11:24.363Z,18.60
2018-11-04T01:13:53.075Z,18.67
2018-11-04T01:19:07.505Z,19.47
2018-11-04T01:21:38.670Z,20.27
2018-11-04T01:24:09.107Z,18.37
2018-11-04T01:26:39.105Z,19.03
2018-11-04T01:31:40.707Z,19.60
2018-11-04T01:34:09.400Z,19.43
2018-11-04T01:36:37.863Z,18.93
2018-11-04T01:39:08.089Z,18.97
2018-11-04T01:41:36.920Z,19.20
2018-11-04T01:44:06.379Z,18.57
2018-11-04T01:46:34.979Z,18.80
2018-11-04T01:49:03.707Z,19.00
2018-11-04T01:51:32.730Z,18.73
2018-11-04T01:56:37.524Z,19.73
2018-11-04T01:59:07.787Z,19.30
2018-11-04T02:01:36.796Z,18.83
2018-11-04T02:04:06.099Z,19.43
2018-11-04T02:06:35.229Z,18.00
2018-11-04T02:11:41.622Z,19.20
2018-11-04T02:14:12.100Z,18.67
2018-11-04T02:16:40.986Z,18.60
2018-11-04T02:19:12.735Z,18.53
2018-11-04T02:24:19.767Z,17.73
2018-11-04T02:26:51.150Z,18.10
2018-11-04T02:29:20.195Z,18.40
2018-11-04T02:31:49.939Z,18.70
2018-11-04T02:34:21.786Z,17.90
2018-11-04T02:36:53.014Z,19.47
2018-11-04T02:39:23.273Z,18.77
2018-11-04T02:41:52.869Z,18.00
2018-11-04T02:44:21.826Z,17.97
2018-11-04T02:46:50.716Z,17.97
2018-11-04T02:49:20.944Z,18.00
2018-11-04T02:51:50.627Z,18.37
2018-11-04T02:54:19.390Z,17.70
2018-11-04T02:56:49.200Z,18.70
2018-11-04T02:59:20.275Z,18.47
2018-11-04T03:01:49.343Z,17.87
2018-11-04T03:06:54.598Z,18.13
2018-11-04T03:09:23.321Z,17.13
2018-11-04T03:11:51.970Z,17.70
2018-11-04T03:14:20.933Z,17.70
2018-11-04T03:16:51.180Z,17.63
2018-11-04T03:19:20.916Z,18.47
2018-11-04T03:21:49.982Z,17.40
2018-11-04T03:24:22.184Z,17.17
2018-11-04T03:26:52.112Z,17.43
2018-11-04T03:29:20.813Z,17.40
2018-11-04T03:31:51.248Z,17.43
2018-11-04T03:34:20.222Z,18.17
2018-11-04T03:36:50.949Z,16.77
2018-11-04T03:39:19.895Z,16.83
2018-11-04T03:41:51.170Z,17.10
2018-11-04T03:44:21.460Z,17.50
2018-11-04T03:49:24.603Z,17.30
2018-11-04T03:51:53.391Z,18.50
2018-11-04T03:54:22.250Z,16.90
2018-11-04T03:56:51.260Z,17.43
2018-11-04T03:59:31.071Z,17.23
2018-11-04T04:04:41.943Z,15.43
2018-11-04T04:09:49.125Z,16.47
2018-11-04T04:12:24.257Z,16.13
2018-11-04T04:14:53.179Z,15.90
2018-11-04T04:17:22.297Z,16.77
2018-11-04T04:19:54.353Z,16.47
2018-11-04T04:22:24.720Z,16.13
2018-11-04T04:24:54.742Z,15.87
2018-11-04T04:27:28.467Z,15.37
2018-11-04T04:29:58.794Z,16.07
2018-11-04T04:32:27.588Z,16.07
2018-11-04T04:34:56.297Z,15.97
2018-11-04T04:37:26.023Z,15.50
2018-11-04T04:39:55.820Z,14.90
2018-11-04T04:42:24.755Z,15.37
2018-11-04T04:44:57.134Z,14.57
2018-11-04T04:47:26.672Z,16.97
2018-11-04T04:49:55.708Z,14.67
2018-11-04T04:52:24.537Z,15.27
2018-11-04T04:54:53.298Z,14.40
2018-11-04T04:57:22.044Z,15.23
2018-11-04T04:59:50.662Z,14.93
2018-11-04T05:02:22.931Z,14.87
2018-11-04T05:04:51.647Z,14.33
2018-11-04T05:07:21.222Z,16.47
2018-11-04T05:09:50.090Z,13.90
2018-11-04T05:12:18.768Z,15.30
2018-11-04T05:14:47.385Z,15.40
2018-11-04T05:17:16.268Z,14.83
2018-11-04T05:19:44.849Z,14.90
2018-11-04T05:22:13.844Z,15.37
2018-11-04T05:24:42.374Z,16.00
2018-11-04T05:27:10.909Z,14.40
2018-11-04T05:29:40.448Z,16.33
2018-11-04T05:32:09.118Z,15.33
2018-11-04T05:34:38.856Z,15.03
2018-11-04T05:37:07.714Z,14.97
2018-11-04T05:39:36.993Z,15.40
2018-11-04T05:42:06.291Z,13.93
2018-11-04T05:44:36.228Z,15.47
2018-11-04T05:47:05.172Z,14.90
2018-11-04T05:49:33.863Z,15.97
2018-11-04T05:52:04.281Z,16.53
2018-11-04T05:54:33.100Z,15.30
2018-11-04T05:57:01.868Z,16.47
2018-11-04T05:59:30.560Z,16.17
2018-11-04T06:02:01.722Z,15.47
2018-11-04T06:04:30.469Z,16.73
2018-11-04T06:09:37.985Z,16.57
2018-11-04T06:12:06.693Z,16.00
2018-11-04T06:14:35.279Z,14.87
2018-11-04T06:17:04.215Z,15.30
2018-11-04T06:19:33.649Z,16.43
2018-11-04T06:22:02.385Z,16.00
2018-11-04T06:24:32.180Z,16.07
2018-11-04T06:27:01.088Z,17.00
2018-11-04T06:29:30.050Z,16.80
2018-11-04T06:31:58.608Z,16.60
2018-11-04T06:34:27.422Z,16.23
2018-11-04T06:36:56.045Z,15.43
2018-11-04T06:39:24.751Z,15.73
2018-11-04T06:41:53.375Z,15.87
2018-11-04T06:44:21.839Z,16.47
2018-11-04T06:46:50.618Z,16.80
2018-11-04T06:49:19.578Z,16.47
2018-11-04T06:51:49.658Z,16.10
2018-11-04T06:54:18.717Z,16.53
2018-11-04T06:56:48.439Z,15.93
2018-11-04T06:59:17.361Z,16.60
2018-11-04T07:01:47.162Z,15.77
2018-11-04T07:04:26.797Z,15.77
2018-11-04T07:06:55.896Z,15.40
2018-11-04T07:09:24.810Z,15.93
2018-11-04T07:14:35.165Z,15.17
2018-11-04T07:19:44.500Z,15.83
2018-11-04T07:22:15.684Z,16.20
2018-11-04T07:24:48.153Z,16.20
2018-11-04T07:27:19.552Z,16.50
2018-11-04T07:29:48.485Z,16.17
2018-11-04T07:32:24.265Z,15.77
2018-11-04T07:34:54.201Z,16.83
2018-11-04T07:37:23.415Z,16.37
2018-11-04T07:39:56.280Z,16.30
2018-11-04T07:42:28.143Z,15.63
2018-11-04T07:45:06.579Z,17.50
2018-11-04T07:47:35.417Z,17.30
2018-11-04T07:50:32.196Z,16.03
2018-11-04T07:53:01.465Z,16.83
2018-11-04T07:55:31.865Z,17.30
2018-11-04T07:58:00.543Z,17.70
2018-11-04T08:00:29.047Z,18.23
2018-11-04T08:02:57.927Z,17.37
2018-11-04T08:08:31.676Z,17.43
2018-11-04T08:11:01.574Z,17.30
2018-11-04T08:13:30.665Z,18.00
2018-11-04T08:15:59.537Z,17.33
2018-11-04T08:18:29.765Z,17.60
2018-11-04T08:24:25.527Z,17.97
2018-11-04T08:26:54.221Z,17.37
2018-11-04T08:29:24.112Z,18.20
2018-11-04T08:34:38.702Z,17.50
2018-11-04T08:37:09.004Z,19.13
2018-11-04T08:39:37.993Z,18.63
2018-11-04T08:42:07.011Z,20.10
2018-11-04T08:44:36.006Z,18.77
2018-11-04T08:47:21.842Z,19.20
2018-11-04T08:49:52.592Z,18.20
2018-11-04T08:52:24.000Z,18.20
2018-11-04T08:54:55.305Z,19.07
2018-11-04T08:57:28.212Z,19.10
2018-11-04T09:02:55.651Z,19.70
2018-11-04T09:05:27.336Z,19.03
2018-11-04T09:10:42.428Z,20.20
2018-11-04T09:13:43.280Z,19.60
2018-11-04T09:31:14.712Z,19.70
2018-11-04T09:33:50.037Z,20.50
2018-11-04T09:36:20.104Z,20.27
2018-11-04T09:38:51.949Z,20.43
2018-11-04T09:41:20.377Z,20.70
2018-11-04T09:43:49.446Z,20.87
2018-11-04T09:46:18.086Z,20.90
2018-11-04T09:48:46.899Z,21.33
2018-11-04T09:51:18.090Z,20.07
2018-11-04T09:53:46.944Z,21.37
2018-11-04T09:56:15.570Z,22.50
2018-11-04T09:58:46.302Z,21.33
2018-11-04T10:01:15.501Z,21.97
2018-11-04T10:03:45.117Z,21.37
2018-11-04T10:06:13.645Z,22.57
2018-11-04T10:11:32.922Z,21.80
2018-11-04T10:14:01.591Z,22.53
2018-11-04T10:16:30.133Z,23.13
2018-11-04T10:18:58.547Z,22.67
2018-11-04T10:21:26.991Z,22.57
2018-11-04T10:23:55.793Z,22.43
2018-11-04T10:26:24.416Z,22.60
2018-11-04T10:28:52.981Z,23.47
2018-11-04T10:31:21.274Z,22.17
2018-11-04T10:33:49.617Z,21.30
2018-11-04T10:36:18.203Z,21.70
2018-11-04T10:38:46.625Z,22.40
2018-11-04T10:41:15.095Z,22.43
2018-11-04T10:43:43.487Z,22.20
2018-11-04T10:46:12.086Z,23.33
2018-11-04T10:48:40.557Z,23.03
2018-11-04T10:51:08.915Z,22.80
2018-11-04T10:53:37.252Z,23.13
2018-11-04T10:56:05.853Z,24.13
2018-11-04T10:58:34.149Z,23.33
2018-11-04T11:01:09.035Z,23.00
2018-11-04T11:03:38.319Z,23.87
2018-11-04T11:06:07.037Z,23.33
2018-11-04T11:08:35.425Z,22.97
2018-11-04T11:11:03.814Z,23.97
2018-11-04T11:13:32.100Z,23.00
2018-11-04T11:16:00.476Z,22.23
2018-11-04T11:18:28.796Z,21.87
2018-11-04T11:20:57.687Z,22.87
2018-11-04T11:23:25.973Z,22.60
2018-11-04T11:25:54.450Z,23.70
2018-11-04T11:28:22.821Z,23.27
2018-11-04T11:30:51.238Z,23.10
2018-11-04T11:33:19.546Z,22.50
2018-11-04T11:35:47.860Z,24.37
2018-11-04T11:38:16.422Z,22.90
2018-11-04T11:40:44.857Z,22.47
2018-11-04T11:43:13.476Z,22.83
2018-11-04T11:45:41.868Z,23.77
2018-11-04T11:48:10.741Z,23.23
2018-11-04T11:50:39.482Z,24.37
2018-11-04T11:53:07.809Z,24.47
2018-11-04T11:55:36.169Z,24.23
2018-11-04T11:58:04.486Z,24.57
2018-11-04T12:00:32.852Z,23.83
2018-11-04T12:03:01.269Z,23.00
2018-11-04T12:05:29.562Z,23.00
2018-11-04T12:07:57.901Z,24.13
2018-11-04T12:10:26.381Z,23.17
2018-11-04T12:12:54.797Z,23.37
2018-11-04T12:15:23.131Z,22.73
2018-11-04T12:17:51.554Z,22.57
2018-11-04T12:20:19.987Z,23.10
2018-11-04T12:22:48.325Z,24.17
2018-11-04T12:25:16.622Z,25.03
2018-11-04T12:27:45.047Z,23.23
2018-11-04T12:30:14.812Z,25.17
2018-11-04T12:32:43.188Z,23.20
2018-11-04T12:35:12.727Z,24.47
2018-11-04T12:37:41.709Z,23.50
2018-11-04T12:40:12.135Z,23.63
2018-11-04T12:42:40.691Z,23.70
2018-11-04T12:45:10.297Z,23.83
2018-11-04T12:47:38.761Z,23.50
2018-11-04T12:50:08.771Z,24.00
2018-11-04T12:52:41.982Z,24.13
2018-11-04T12:55:10.601Z,23.43
2018-11-04T12:57:39.000Z,23.13
2018-11-04T13:00:11.449Z,24.07
2018-11-04T13:02:39.789Z,24.90
2018-11-04T13:05:09.641Z,25.23
2018-11-04T13:07:38.001Z,25.30
2018-11-04T13:10:08.296Z,25.50
2018-11-04T13:12:36.957Z,23.47
2018-11-04T13:15:06.044Z,25.30
2018-11-04T13:17:34.660Z,24.70
2018-11-04T13:20:03.242Z,25.50
2018-11-04T13:22:31.621Z,25.43
2018-11-04T13:24:59.948Z,24.47
2018-11-04T13:27:28.378Z,26.80
2018-11-04T13:30:03.497Z,26.23
2018-11-04T13:32:31.901Z,25.27
2018-11-04T13:35:00.197Z,26.20
2018-11-04T13:37:28.528Z,26.93
2018-11-04T13:39:56.825Z,25.90
2018-11-04T13:42:25.183Z,26.40
2018-11-04T13:44:53.608Z,26.37
2018-11-04T13:47:21.936Z,28.10
2018-11-04T13:49:50.274Z,28.10
2018-11-04T13:52:18.622Z,27.10
2018-11-04T13:54:47.135Z,26.90
2018-11-04T13:57:15.532Z,26.37
2018-11-04T13:59:43.920Z,26.40
2018-11-04T14:02:12.343Z,26.17
2018-11-04T14:04:41.633Z,26.37
2018-11-04T14:07:10.012Z,27.30
2018-11-04T14:09:38.330Z,27.77
2018-11-04T14:12:06.849Z,27.10
2018-11-04T14:14:35.143Z,27.27
2018-11-04T14:17:03.449Z,28.37
2018-11-04T14:19:31.799Z,26.73
2018-11-04T14:22:00.133Z,27.20
2018-11-04T14:24:28.572Z,28.33
2018-11-04T14:26:57.045Z,29.20
2018-11-04T14:29:25.440Z,28.03
2018-11-04T14:31:53.733Z,28.50
2018-11-04T14:34:22.046Z,29.43
2018-11-04T14:36:50.387Z,28.83
2018-11-04T14:39:18.846Z,28.70
2018-11-04T14:41:47.280Z,28.33
2018-11-04T14:44:15.609Z,28.53
2018-11-04T14:46:44.036Z,28.47
2018-11-04T14:49:12.402Z,28.93
2018-11-04T14:51:41.037Z,29.30
2018-11-04T14:54:09.422Z,30.33
2018-11-04T14:56:37.693Z,29.03
2018-11-04T14:59:06.012Z,29.23
2018-11-04T15:01:35.217Z,31.13
2018-11-04T15:04:03.475Z,31.67
2018-11-04T15:06:32.772Z,30.73
2018-11-04T15:09:01.082Z,29.90
2018-11-04T15:11:29.382Z,29.13
2018-11-04T15:13:57.685Z,31.13
2018-11-04T15:16:25.996Z,33.03
2018-11-04T15:18:54.357Z,29.17
2018-11-04T15:21:22.620Z,30.83
2018-11-04T15:23:50.988Z,30.77
2018-11-04T15:26:20.363Z,32.13
2018-11-04T15:28:48.845Z,32.70
2018-11-04T15:31:17.193Z,33.17
2018-11-04T15:33:45.586Z,32.07
2018-11-04T15:36:14.260Z,32.97
2018-11-04T15:38:42.693Z,32.60
2018-11-04T15:41:10.964Z,32.93
2018-11-04T15:43:39.330Z,33.40
2018-11-04T15:46:07.662Z,34.43
2018-11-04T15:48:35.973Z,33.13
2018-11-04T15:51:04.420Z,34.47
2018-11-04T15:53:32.873Z,32.08
2018-11-04T15:56:01.221Z,36.03
2018-11-04T15:58:29.600Z,34.90
2018-11-04T16:00:57.898Z,36.53
2018-11-04T16:03:26.256Z,37.23
2018-11-04T16:05:54.920Z,37.00
2018-11-04T16:08:23.216Z,36.63
2018-11-04T16:10:51.511Z,37.47
2018-11-04T16:13:20.011Z,36.63
2018-11-04T16:15:48.442Z,37.30
2018-11-04T16:18:17.256Z,37.43
2018-11-04T16:20:45.664Z,37.40
2018-11-04T16:23:13.988Z,37.57
2018-11-04T16:25:43.253Z,35.33
2018-11-04T16:28:11.857Z,37.33
2018-11-04T16:30:40.399Z,36.40
2018-11-04T16:33:08.787Z,38.17
2018-11-04T16:35:37.118Z,37.27
2018-11-04T16:38:05.472Z,37.97
2018-11-04T16:40:33.872Z,36.47
2018-11-04T16:43:02.444Z,36.60
2018-11-04T16:45:30.867Z,39.27
2018-11-04T16:47:59.299Z,38.20
2018-11-04T16:50:27.768Z,39.00
2018-11-04T16:52:56.114Z,38.93
2018-11-04T16:55:24.406Z,38.13
2018-11-04T16:57:52.796Z,36.87
2018-11-04T17:00:21.245Z,36.63
2018-11-04T17:02:49.573Z,37.03
2018-11-04T17:05:18.171Z,35.57
2018-11-04T17:07:46.393Z,37.93
2018-11-04T17:10:14.704Z,39.00
2018-11-04T17:12:43.068Z,37.93
2018-11-04T17:15:13.187Z,35.70
2018-11-04T17:17:41.714Z,37.70
2018-11-04T17:21:18.803Z,38.20
2018-11-04T17:23:47.220Z,39.20
2018-11-04T17:26:15.691Z,40.40
2018-11-04T17:28:44.141Z,38.87
2018-11-04T17:31:13.008Z,37.23
2018-11-04T17:33:41.393Z,37.27
2018-11-04T17:36:09.977Z,38.83
2018-11-04T17:38:38.321Z,38.10
2018-11-04T17:41:06.829Z,39.60
2018-11-04T17:44:04.657Z,38.97
2018-11-04T17:46:35.536Z,37.03
2018-11-04T17:49:04.353Z,36.67
2018-11-04T17:51:33.010Z,36.20
2018-11-04T17:54:26.450Z,35.93
2018-11-04T17:56:56.117Z,35.57
2018-11-04T17:59:24.526Z,35.13
2018-11-04T18:01:52.935Z,34.50
2018-11-04T18:04:21.412Z,34.57
2018-11-04T18:06:49.741Z,37.07
2018-11-04T18:09:18.069Z,36.57
2018-11-04T18:11:46.462Z,35.90
2018-11-04T18:14:14.953Z,36.57
2018-11-04T18:16:43.349Z,37.83
2018-11-04T18:19:12.148Z,35.30
2018-11-04T18:21:40.861Z,38.93
2018-11-04T18:24:09.437Z,37.03
2018-11-04T18:26:37.910Z,36.70
2018-11-04T18:29:06.641Z,34.60
2018-11-04T18:31:35.259Z,33.90
2018-11-04T18:34:03.654Z,33.67
2018-11-04T18:36:32.275Z,34.27
2018-11-04T18:39:00.798Z,33.20
2018-11-04T18:41:29.250Z,32.33
2018-11-04T18:43:57.713Z,32.50
2018-11-04T18:46:26.033Z,32.80
2018-11-04T18:48:54.385Z,33.93
2018-11-04T18:51:22.796Z,32.37
2018-11-04T18:53:51.140Z,33.30
2018-11-04T18:56:19.623Z,33.40
2018-11-04T18:58:48.064Z,33.30
2018-11-04T19:01:16.454Z,33.90
2018-11-04T19:03:45.389Z,33.60
2018-11-04T19:06:13.848Z,33.10
2018-11-04T19:08:42.239Z,34.57
2018-11-04T19:11:10.997Z,34.10
2018-11-04T19:13:40.453Z,34.77
2018-11-04T19:16:08.960Z,35.30
2018-11-04T19:18:37.746Z,36.33
2018-11-04T19:21:06.239Z,36.07
2018-11-04T19:23:34.712Z,35.40
2018-11-04T19:26:03.089Z,35.33
2018-11-04T19:28:31.469Z,35.23
2018-11-04T19:30:59.910Z,35.63
2018-11-04T19:33:28.232Z,36.13
2018-11-04T19:35:56.768Z,33.43
2018-11-04T19:38:25.346Z,35.47
2018-11-04T19:40:54.317Z,36.93
2018-11-04T19:43:22.781Z,36.20
2018-11-04T19:45:51.418Z,35.93
2018-11-04T19:48:20.195Z,35.70
2018-11-04T19:50:48.635Z,37.20
2018-11-04T19:53:17.048Z,36.93
2018-11-04T19:55:45.992Z,33.70
2018-11-04T19:58:14.564Z,37.80
2018-11-04T20:00:43.184Z,35.30
2018-11-04T20:03:11.557Z,36.17
2018-11-04T20:05:40.005Z,35.73
2018-11-04T20:08:09.225Z,35.97
2018-11-04T20:13:20.191Z,34.87
2018-11-04T20:15:48.668Z,35.47
2018-11-04T20:18:22.596Z,36.37
2018-11-04T20:20:51.049Z,36.23
2018-11-04T20:23:19.728Z,36.33
2018-11-04T20:25:53.549Z,37.37
2018-11-04T20:28:22.731Z,38.10
2018-11-04T20:30:51.681Z,36.30
2018-11-04T20:33:20.164Z,37.30
2018-11-04T20:35:49.406Z,38.90
2018-11-04T20:38:18.181Z,36.40
2018-11-04T20:40:52.329Z,38.83
2018-11-04T20:43:21.432Z,39.47
2018-11-04T20:45:51.180Z,38.77
2018-11-04T20:48:26.109Z,37.50
2018-11-04T20:50:58.528Z,37.13
2018-11-04T20:53:27.055Z,37.40
2018-11-04T20:56:00.814Z,38.87
2018-11-04T20:58:29.381Z,37.80
2018-11-04T21:00:57.929Z,36.93
2018-11-04T21:03:26.585Z,36.63
2018-11-04T21:05:55.149Z,37.60
2018-11-04T21:08:27.063Z,38.37
2018-11-04T21:10:55.400Z,38.60
2018-11-04T21:13:23.742Z,37.77
2018-11-04T21:15:52.203Z,37.03
2018-11-04T21:18:20.765Z,36.70
2018-11-04T21:20:49.269Z,37.20
2018-11-04T21:23:17.789Z,37.77
2018-11-04T21:25:46.433Z,37.47
2018-11-04T21:28:14.862Z,36.40
2018-11-04T21:30:43.684Z,37.97
2018-11-04T21:33:12.090Z,36.13
2018-11-04T21:35:40.472Z,37.10
2018-11-04T21:38:09.438Z,36.67
2018-11-04T21:40:39.398Z,37.27
2018-11-04T21:43:07.877Z,36.00
2018-11-04T21:45:36.079Z,37.87
2018-11-04T21:48:05.318Z,38.43
2018-11-04T21:50:33.638Z,35.87
2018-11-04T21:53:03.058Z,36.30
2018-11-04T21:55:31.913Z,37.03
2018-11-04T21:58:00.652Z,38.33
2018-11-04T22:00:29.850Z,38.03
2018-11-04T22:02:58.793Z,37.90
2018-11-04T22:05:27.798Z,38.20
2018-11-04T22:07:56.921Z,38.07
2018-11-04T22:10:25.484Z,38.13
2018-11-04T22:12:57.088Z,37.73
2018-11-04T22:15:25.789Z,39.03
2018-11-04T22:17:54.882Z,38.03
2018-11-04T22:20:23.400Z,37.03
2018-11-04T22:22:51.877Z,36.10
2018-11-04T22:25:20.490Z,38.37
2018-11-04T22:27:49.519Z,37.17
2018-11-04T22:30:18.311Z,36.37
2018-11-04T22:32:46.656Z,38.57
2018-11-04T22:35:15.073Z,38.13
2018-11-04T22:37:43.560Z,36.53
2018-11-04T22:40:12.675Z,36.07
2018-11-04T22:42:42.691Z,36.57
2018-11-04T22:45:12.093Z,36.70
2018-11-04T22:47:41.796Z,36.87
2018-11-04T22:50:14.148Z,36.57
2018-11-04T22:52:43.149Z,37.03
2018-11-04T22:55:13.377Z,38.10
2018-11-04T22:57:43.704Z,37.50
2018-11-04T23:00:18.408Z,37.20
2018-11-04T23:02:48.780Z,35.73
2018-11-04T23:05:23.026Z,37.47
2018-11-04T23:07:52.738Z,37.77
2018-11-04T23:10:21.478Z,37.90
2018-11-04T23:12:49.896Z,38.37
2018-11-04T23:15:18.438Z,37.90
2018-11-04T23:17:48.020Z,38.87
2018-11-04T23:20:16.399Z,37.70
2018-11-04T23:22:44.766Z,37.63
2018-11-04T23:25:14.283Z,38.33
2018-11-04T23:27:43.753Z,37.50
2018-11-04T23:30:15.311Z,38.47
2018-11-04T23:32:47.951Z,37.77
2018-11-04T23:35:17.925Z,37.80
2018-11-04T23:37:46.565Z,37.23
2018-11-04T23:40:15.709Z,38.13
2018-11-04T23:42:52.020Z,38.93
2018-11-04T23:45:21.331Z,37.40
2018-11-04T23:47:50.877Z,37.87
2018-11-04T23:50:19.913Z,38.00
2018-11-04T23:52:50.462Z,38.00
2018-11-04T23:55:26.883Z,36.83
2018-11-04T23:57:55.346Z,37.77
